Hovedside
METAR-TAF:

METAR-TAF

Lufthavner :

Alta lufthavn

Alta, Norge

breddegrad: 69-59N, lengdegrad: 023-22E, høyde over havet: 0 m

Gjeldene værobservasjon

Denne rapporten ble laget for 54 minutter siden, klokken 14:50 UTC
Vind 8 kt fra Vest-nordvest
Temperatur 7°C
Luftfuktighet 57%
Trykk 1029 hPa
Sikt 10 km eller mer
ingen skyer under 1500 m og ingen bygeskyer

METAR: ENAT 181450Z 30008KT CAVOK 07/M01 Q1029 RMK WIND 700FT 31009KT

Tid: 17:44 (15:44 UTC)

Varsel

Denne rapporten ble laget for 1 time og 44 minutter siden, klokken 14:00 UTC
Varsel gyldig fra 18. klokken 15 UTC til 18. klokken 22 UTC
Vind 5 kt fra skiftende retning
Sikt 10 km eller mer
ingen skyer under 1500 m og ingen bygeskyer

TAF: ENAT 181400Z 1815/1822 VRB05KT CAVOK

Værobservasjoner og værvarsel for over 4000 flyplasser (METAR- og TAF-rapporter).

Tilgjengelige stasjoner er representert av de røde og gule prikkene på kartet.

Hold musepekeren over prikken for å se navnet på stasjonen.

Klikk så for å se værobservasjoner og -varsler.

For å forandre kartet kan du klikke på den grønne knappen med svart kryss for å zoome inn, på den grønne knappen med strek for å zoome ut, eller på de grønne pilene for å se tilstøtende kart.


METAR-TAF: